Yvonne K. — PBLX — position and weather

sailwx.info

Track history (hours):
 
Tides and Currents Weather Stations Pressure Air Temp Water Temp Dewpoint Dewpoint Depression Visibility Wind Speed Wind Dir Waves Ship Positions

Yvonne K.

Last reported at 2016-May-23 03:10 UTC. Time now 2016-May-26 04:43 UTC.
Position N 49°44' W 003°32'.

Length 90 m; draft 3.5 m.

Type: Cargo ship. MMSI: 244948000.

Date/timePositionNaut miles runAvg speedWind from/ knotsBaromVisibWave heightAir tempDewpointWater temp
2016-May-23 03:10N 49°44' W 003°32'710.8
2016-May-23 02:34N 49°47' W 003°23'1511.5
2016-May-23 01:14N 49°55' W 003°03'811.4
2016-May-23 00:33N 49°58' W 002°52'1110.7
2016-May-22 23:33N 50°01' W 002°36'59 8.4
2016-May-22 16:29N 50°19' W 001°07'1213.0
2016-May-22 15:33N 50°23' W 000°49'1312.8
2016-May-22 14:33N 50°26' W 000°30'1312.1
2016-May-22 13:30N 50°30' W 000°11'1111.2
2016-May-22 12:33N 50°33' E 000°05'1010.4
2016-May-22 11:33N 50°36' E 000°21'5210.4
2016-May-22 06:33N 51°05' E 001°29'1212.0
2016-May-22 05:33N 51°13' E 001°44'1110.6
2016-May-22 04:33N 51°22' E 001°54'10 9.6
2016-May-22 03:33N 51°30' E 002°03'9 8.8
2016-May-22 02:32N 51°36' E 002°13'96 9.4
2016-May-21 16:24N 52°30' E 004°22'8 9.1
2016-May-21 15:33N 52°28' E 004°34'4 4.0
2016-May-21 14:33N 52°27' E 004°41'6 5.6
2016-May-21 13:33N 52°25' E 004°49'0 0.0
2016-May-21 12:33N 52°25' E 004°49'0 0.0
2016-May-21 11:30N 52°25' E 004°49'0 0.0
2016-May-21 10:33N 52°25' E 004°49'0 0.0
2016-May-21 09:33N 52°25' E 004°49'0 0.0
2016-May-21 08:33N 52°25' E 004°49'0 0.0
2016-May-21 07:33N 52°25' E 004°49'0 0.0
2016-May-21 06:33N 52°25' E 004°49'0 0.0
2016-May-21 05:33N 52°25' E 004°49'0 0.0
2016-May-21 04:33N 52°25' E 004°49'0 0.0
2016-May-21 03:33N 52°25' E 004°49'0 0.0
2016-May-21 02:33N 52°25' E 004°49'0 0.0
2016-May-21 01:33N 52°25' E 004°49'0 0.0
2016-May-21 00:33N 52°25' E 004°49'4 3.9
2016-May-20 23:33N 52°26' E 004°43'5 4.7
2016-May-20 22:33N 52°28' E 004°36'1 0.6
2016-May-20 21:34N 52°28' E 004°35'7 6.8
2016-May-20 20:33N 52°28' E 004°24'8 7.7
2016-May-20 19:33N 52°29' E 004°11'8 8.2
2016-May-20 18:33N 52°27' E 003°58'8 8.4
2016-May-20 17:33N 52°25' E 003°45'10 8.8
2016-May-20 16:24N 52°19' E 003°31'75 9.2
2016-May-20 08:19N 51°23' E 002°11'6 7.2
2016-May-20 07:33N 51°18' E 002°07'7 6.9
2016-May-20 06:33N 51°13' E 001°60'7 7.3
2016-May-20 05:33N 51°08' E 001°51'7 7.1
2016-May-20 04:33N 51°03' E 001°43'8 7.8
2016-May-20 03:33N 50°58' E 001°34'9 8.6
2016-May-20 02:33N 50°50' E 001°27'74 9.1
2016-May-19 18:27N 50°15' W 000°15'1110.6
2016-May-19 17:24N 50°12' W 000°32'8 9.8
2016-May-19 16:33N 50°10' W 000°44'9 8.6
2016-May-19 15:28N 50°08' W 000°58'13 6.9
2016-May-19 13:33N 50°04' W 001°19'6 5.8
2016-May-19 12:33N 50°03' W 001°27'7 5.8
2016-May-19 11:18N 50°01' W 001°38'5 6.7
2016-May-19 10:33N 49°59' W 001°46'8 7.8
2016-May-19 09:28N 49°57' W 001°58'8 9.1
2016-May-19 08:33N 49°55' W 002°11'10 9.9
2016-May-19 07:30N 49°52' W 002°27'1010.6
2016-May-19 06:30N 49°50' W 002°42'1010.3
2016-May-19 05:33N 49°46' W 002°56'12 9.8
2016-May-19 04:23N 49°40' W 003°12'8 9.4
2016-May-19 03:33N 49°36' W 003°22'  
Track history (hours):
 
Tides and Currents Weather Stations Pressure Air Temp Water Temp Dewpoint Dewpoint Depression Visibility Wind Speed Wind Dir Waves Ship Positions

Yvonne K.

Last reported at 2016-May-23 03:10 UTC. Time now 2016-May-26 04:43 UTC.
Position N 49°44' W 003°32'.

Length 90 m; draft 3.5 m.

Type: Cargo ship. MMSI: 244948000.

Date/timePositionNaut miles runAvg speedWind from/ knotsBaromVisibWave heightAir tempDewpointWater temp
2016-May-23 03:10N 49°44' W 003°32'710.8
2016-May-23 02:34N 49°47' W 003°23'1511.5
2016-May-23 01:14N 49°55' W 003°03'811.4
2016-May-23 00:33N 49°58' W 002°52'1110.7
2016-May-22 23:33N 50°01' W 002°36'59 8.4
2016-May-22 16:29N 50°19' W 001°07'1213.0
2016-May-22 15:33N 50°23' W 000°49'1312.8
2016-May-22 14:33N 50°26' W 000°30'1312.1
2016-May-22 13:30N 50°30' W 000°11'1111.2
2016-May-22 12:33N 50°33' E 000°05'1010.4
2016-May-22 11:33N 50°36' E 000°21'5210.4
2016-May-22 06:33N 51°05' E 001°29'1212.0
2016-May-22 05:33N 51°13' E 001°44'1110.6
2016-May-22 04:33N 51°22' E 001°54'10 9.6
2016-May-22 03:33N 51°30' E 002°03'9 8.8
2016-May-22 02:32N 51°36' E 002°13'96 9.4
2016-May-21 16:24N 52°30' E 004°22'8 9.1
2016-May-21 15:33N 52°28' E 004°34'4 4.0
2016-May-21 14:33N 52°27' E 004°41'6 5.6
2016-May-21 13:33N 52°25' E 004°49'0 0.0
2016-May-21 12:33N 52°25' E 004°49'0 0.0
2016-May-21 11:30N 52°25' E 004°49'0 0.0
2016-May-21 10:33N 52°25' E 004°49'0 0.0
2016-May-21 09:33N 52°25' E 004°49'0 0.0
2016-May-21 08:33N 52°25' E 004°49'0 0.0
2016-May-21 07:33N 52°25' E 004°49'0 0.0
2016-May-21 06:33N 52°25' E 004°49'0 0.0
2016-May-21 05:33N 52°25' E 004°49'0 0.0
2016-May-21 04:33N 52°25' E 004°49'0 0.0
2016-May-21 03:33N 52°25' E 004°49'0 0.0
2016-May-21 02:33N 52°25' E 004°49'0 0.0
2016-May-21 01:33N 52°25' E 004°49'0 0.0
2016-May-21 00:33N 52°25' E 004°49'4 3.9
2016-May-20 23:33N 52°26' E 004°43'5 4.7
2016-May-20 22:33N 52°28' E 004°36'1 0.6
2016-May-20 21:34N 52°28' E 004°35'7 6.8
2016-May-20 20:33N 52°28' E 004°24'8 7.7
2016-May-20 19:33N 52°29' E 004°11'8 8.2
2016-May-20 18:33N 52°27' E 003°58'8 8.4
2016-May-20 17:33N 52°25' E 003°45'10 8.8
2016-May-20 16:24N 52°19' E 003°31'75 9.2
2016-May-20 08:19N 51°23' E 002°11'6 7.2
2016-May-20 07:33N 51°18' E 002°07'7 6.9
2016-May-20 06:33N 51°13' E 001°60'7 7.3
2016-May-20 05:33N 51°08' E 001°51'7 7.1
2016-May-20 04:33N 51°03' E 001°43'8 7.8
2016-May-20 03:33N 50°58' E 001°34'9 8.6
2016-May-20 02:33N 50°50' E 001°27'74 9.1
2016-May-19 18:27N 50°15' W 000°15'1110.6
2016-May-19 17:24N 50°12' W 000°32'8 9.8
2016-May-19 16:33N 50°10' W 000°44'9 8.6
2016-May-19 15:28N 50°08' W 000°58'13 6.9
2016-May-19 13:33N 50°04' W 001°19'6 5.8
2016-May-19 12:33N 50°03' W 001°27'7 5.8
2016-May-19 11:18N 50°01' W 001°38'5 6.7
2016-May-19 10:33N 49°59' W 001°46'8 7.8
2016-May-19 09:28N 49°57' W 001°58'8 9.1
2016-May-19 08:33N 49°55' W 002°11'10 9.9
2016-May-19 07:30N 49°52' W 002°27'1010.6
2016-May-19 06:30N 49°50' W 002°42'1010.3
2016-May-19 05:33N 49°46' W 002°56'12 9.8
2016-May-19 04:23N 49°40' W 003°12'8 9.4
2016-May-19 03:33N 49°36' W 003°22'  

Dump ship's entire track history